sensor_id;sensor_type;location;lat;lon;timestamp;P1;durP1;ratioP1;P2;durP2;ratioP2
13463;SDS011;6804;48.774;9.174;2023-04-24T00:01:06;2.87;;;0.90;;
13463;SDS011;6804;48.774;9.174;2023-04-24T00:03:40;1.13;;;0.90;;
13463;SDS011;6804;48.774;9.174;2023-04-24T00:06:07;2.00;;;1.00;;
13463;SDS011;6804;48.774;9.174;2023-04-24T00:08:36;0.97;;;0.60;;
13463;SDS011;6804;48.774;9.174;2023-04-24T00:11:06;1.40;;;0.90;;
13463;SDS011;6804;48.774;9.174;2023-04-24T00:13:40;2.30;;;0.67;;
13463;SDS011;6804;48.774;9.174;2023-04-24T00:16:07;1.70;;;0.77;;
13463;SDS011;6804;48.774;9.174;2023-04-24T00:18:34;1.60;;;0.90;;
13463;SDS011;6804;48.774;9.174;2023-04-24T00:21:01;1.43;;;0.80;;
13463;SDS011;6804;48.774;9.174;2023-04-24T00:23:29;1.53;;;0.80;;
13463;SDS011;6804;48.774;9.174;2023-04-24T00:26:03;1.03;;;0.87;;
13463;SDS011;6804;48.774;9.174;2023-04-24T00:28:30;1.80;;;0.80;;
13463;SDS011;6804;48.774;9.174;2023-04-24T00:30:57;1.93;;;0.80;;
13463;SDS011;6804;48.774;9.174;2023-04-24T00:33:27;1.60;;;0.80;;
13463;SDS011;6804;48.774;9.174;2023-04-24T00:36:04;1.20;;;0.87;;
13463;SDS011;6804;48.774;9.174;2023-04-24T00:38:32;1.43;;;0.60;;
13463;SDS011;6804;48.774;9.174;2023-04-24T00:40:59;1.53;;;0.80;;
13463;SDS011;6804;48.774;9.174;2023-04-24T00:43:28;2.13;;;0.70;;
13463;SDS011;6804;48.774;9.174;2023-04-24T00:45:56;2.13;;;0.77;;
13463;SDS011;6804;48.774;9.174;2023-04-24T00:48:27;2.00;;;0.73;;
13463;SDS011;6804;48.774;9.174;2023-04-24T00:50:57;2.50;;;0.90;;
13463;SDS011;6804;48.774;9.174;2023-04-24T00:53:24;2.10;;;0.70;;
13463;SDS011;6804;48.774;9.174;2023-04-24T00:55:51;0.90;;;0.70;;
13463;SDS011;6804;48.774;9.174;2023-04-24T00:58:18;1.00;;;0.60;;
13463;SDS011;6804;48.774;9.174;2023-04-24T01:00:47;0.73;;;0.70;;
13463;SDS011;6804;48.774;9.174;2023-04-24T01:03:18;0.97;;;0.63;;
13463;SDS011;6804;48.774;9.174;2023-04-24T01:05:51;1.43;;;0.83;;
13463;SDS011;6804;48.774;9.174;2023-04-24T01:08:20;1.80;;;0.80;;
13463;SDS011;6804;48.774;9.174;2023-04-24T01:10:53;0.80;;;0.70;;
13463;SDS011;6804;48.774;9.174;2023-04-24T01:13:21;1.23;;;0.80;;
13463;SDS011;6804;48.774;9.174;2023-04-24T01:15:53;3.27;;;0.70;;
13463;SDS011;6804;48.774;9.174;2023-04-24T01:18:20;1.33;;;0.73;;
13463;SDS011;6804;48.774;9.174;2023-04-24T01:20:47;1.40;;;0.80;;
13463;SDS011;6804;48.774;9.174;2023-04-24T01:23:21;2.80;;;0.67;;
13463;SDS011;6804;48.774;9.174;2023-04-24T01:25:48;1.17;;;0.70;;
13463;SDS011;6804;48.774;9.174;2023-04-24T01:28:18;1.50;;;0.80;;
13463;SDS011;6804;48.774;9.174;2023-04-24T01:30:48;1.20;;;0.80;;
13463;SDS011;6804;48.774;9.174;2023-04-24T01:33:24;1.10;;;0.90;;
13463;SDS011;6804;48.774;9.174;2023-04-24T01:35:55;1.10;;;0.67;;
13463;SDS011;6804;48.774;9.174;2023-04-24T01:38:24;2.13;;;0.80;;
13463;SDS011;6804;48.774;9.174;2023-04-24T01:40:54;0.93;;;0.60;;
13463;SDS011;6804;48.774;9.174;2023-04-24T01:43:21;1.10;;;0.80;;
13463;SDS011;6804;48.774;9.174;2023-04-24T01:45:53;1.67;;;0.90;;
13463;SDS011;6804;48.774;9.174;2023-04-24T01:48:20;0.87;;;0.77;;
13463;SDS011;6804;48.774;9.174;2023-04-24T01:50:47;1.33;;;0.77;;
13463;SDS011;6804;48.774;9.174;2023-04-24T01:53:14;1.57;;;0.80;;
13463;SDS011;6804;48.774;9.174;2023-04-24T01:55:43;0.80;;;0.63;;
13463;SDS011;6804;48.774;9.174;2023-04-24T01:58:10;1.07;;;0.90;;
13463;SDS011;6804;48.774;9.174;2023-04-24T02:00:38;2.03;;;0.80;;
13463;SDS011;6804;48.774;9.174;2023-04-24T02:03:05;0.70;;;0.60;;
13463;SDS011;6804;48.774;9.174;2023-04-24T02:05:32;2.17;;;0.70;;
13463;SDS011;6804;48.774;9.174;2023-04-24T02:07:59;1.43;;;0.70;;
13463;SDS011;6804;48.774;9.174;2023-04-24T02:10:29;1.37;;;0.70;;
13463;SDS011;6804;48.774;9.174;2023-04-24T02:12:58;3.03;;;0.80;;
13463;SDS011;6804;48.774;9.174;2023-04-24T02:15:25;1.47;;;0.67;;
13463;SDS011;6804;48.774;9.174;2023-04-24T02:17:53;2.03;;;0.63;;
13463;SDS011;6804;48.774;9.174;2023-04-24T02:20:20;1.37;;;0.73;;
13463;SDS011;6804;48.774;9.174;2023-04-24T02:22:59;0.67;;;0.67;;
13463;SDS011;6804;48.774;9.174;2023-04-24T02:25:28;1.23;;;0.80;;
13463;SDS011;6804;48.774;9.174;2023-04-24T02:27:55;1.67;;;0.83;;
13463;SDS011;6804;48.774;9.174;2023-04-24T02:30:27;3.20;;;0.83;;
13463;SDS011;6804;48.774;9.174;2023-04-24T02:32:54;2.07;;;0.80;;
13463;SDS011;6804;48.774;9.174;2023-04-24T02:35:24;1.10;;;0.80;;
13463;SDS011;6804;48.774;9.174;2023-04-24T02:37:53;2.27;;;0.80;;
13463;SDS011;6804;48.774;9.174;2023-04-24T02:40:20;2.17;;;0.73;;
13463;SDS011;6804;48.774;9.174;2023-04-24T02:42:48;1.93;;;0.70;;
13463;SDS011;6804;48.774;9.174;2023-04-24T02:45:15;2.60;;;0.83;;
13463;SDS011;6804;48.774;9.174;2023-04-24T02:47:46;1.30;;;0.63;;
13463;SDS011;6804;48.774;9.174;2023-04-24T02:50:14;1.60;;;0.70;;
13463;SDS011;6804;48.774;9.174;2023-04-24T02:52:41;1.40;;;0.67;;
13463;SDS011;6804;48.774;9.174;2023-04-24T02:55:09;3.90;;;0.90;;
13463;SDS011;6804;48.774;9.174;2023-04-24T02:57:36;1.83;;;0.90;;
13463;SDS011;6804;48.774;9.174;2023-04-24T03:00:06;1.00;;;0.73;;
13463;SDS011;6804;48.774;9.174;2023-04-24T03:02:34;1.27;;;0.73;;
13463;SDS011;6804;48.774;9.174;2023-04-24T03:05:03;1.00;;;0.80;;
13463;SDS011;6804;48.774;9.174;2023-04-24T03:07:35;1.70;;;0.80;;
13463;SDS011;6804;48.774;9.174;2023-04-24T03:10:03;1.13;;;0.73;;
13463;SDS011;6804;48.774;9.174;2023-04-24T03:12:31;2.20;;;0.80;;
13463;SDS011;6804;48.774;9.174;2023-04-24T03:15:06;1.20;;;0.70;;
13463;SDS011;6804;48.774;9.174;2023-04-24T03:17:37;0.73;;;0.70;;
13463;SDS011;6804;48.774;9.174;2023-04-24T03:20:06;1.00;;;0.73;;
13463;SDS011;6804;48.774;9.174;2023-04-24T03:22:35;1.20;;;0.60;;
13463;SDS011;6804;48.774;9.174;2023-04-24T03:25:05;4.07;;;0.80;;
13463;SDS011;6804;48.774;9.174;2023-04-24T03:27:37;0.80;;;0.60;;
13463;SDS011;6804;48.774;9.174;2023-04-24T03:30:07;1.37;;;0.70;;
13463;SDS011;6804;48.774;9.174;2023-04-24T03:32:35;1.10;;;0.70;;
13463;SDS011;6804;48.774;9.174;2023-04-24T03:35:08;3.30;;;0.90;;
13463;SDS011;6804;48.774;9.174;2023-04-24T03:37:36;1.00;;;0.70;;
13463;SDS011;6804;48.774;9.174;2023-04-24T03:40:06;1.13;;;0.60;;
13463;SDS011;6804;48.774;9.174;2023-04-24T03:42:37;1.10;;;0.70;;
13463;SDS011;6804;48.774;9.174;2023-04-24T03:45:08;0.90;;;0.63;;
13463;SDS011;6804;48.774;9.174;2023-04-24T03:47:36;1.80;;;0.80;;
13463;SDS011;6804;48.774;9.174;2023-04-24T03:50:03;1.10;;;0.70;;
13463;SDS011;6804;48.774;9.174;2023-04-24T03:52:39;1.00;;;0.73;;
13463;SDS011;6804;48.774;9.174;2023-04-24T03:55:06;1.70;;;0.90;;
13463;SDS011;6804;48.774;9.174;2023-04-24T03:57:34;1.70;;;1.03;;
13463;SDS011;6804;48.774;9.174;2023-04-24T04:00:01;1.30;;;0.83;;
13463;SDS011;6804;48.774;9.174;2023-04-24T04:02:29;2.00;;;0.83;;
13463;SDS011;6804;48.774;9.174;2023-04-24T04:04:56;1.20;;;0.80;;
13463;SDS011;6804;48.774;9.174;2023-04-24T04:07:28;2.17;;;0.87;;
13463;SDS011;6804;48.774;9.174;2023-04-24T04:09:55;1.07;;;0.70;;
13463;SDS011;6804;48.774;9.174;2023-04-24T04:12:28;1.00;;;0.70;;
13463;SDS011;6804;48.774;9.174;2023-04-24T04:14:58;1.40;;;0.60;;
13463;SDS011;6804;48.774;9.174;2023-04-24T04:17:28;1.53;;;0.73;;
13463;SDS011;6804;48.774;9.174;2023-04-24T04:19:58;1.03;;;0.63;;
13463;SDS011;6804;48.774;9.174;2023-04-24T04:22:26;1.43;;;0.70;;
13463;SDS011;6804;48.774;9.174;2023-04-24T04:24:53;2.37;;;0.80;;
13463;SDS011;6804;48.774;9.174;2023-04-24T04:27:21;0.90;;;0.70;;
13463;SDS011;6804;48.774;9.174;2023-04-24T04:29:49;1.87;;;1.00;;
13463;SDS011;6804;48.774;9.174;2023-04-24T04:32:16;2.83;;;0.90;;
13463;SDS011;6804;48.774;9.174;2023-04-24T04:34:44;1.37;;;0.60;;
13463;SDS011;6804;48.774;9.174;2023-04-24T04:37:11;1.07;;;0.97;;
13463;SDS011;6804;48.774;9.174;2023-04-24T04:39:40;2.47;;;0.70;;
13463;SDS011;6804;48.774;9.174;2023-04-24T04:42:08;1.07;;;0.77;;
13463;SDS011;6804;48.774;9.174;2023-04-24T04:44:35;0.70;;;0.70;;
13463;SDS011;6804;48.774;9.174;2023-04-24T04:47:03;0.80;;;0.77;;
13463;SDS011;6804;48.774;9.174;2023-04-24T04:49:33;0.80;;;0.80;;
13463;SDS011;6804;48.774;9.174;2023-04-24T04:52:10;0.90;;;0.80;;
13463;SDS011;6804;48.774;9.174;2023-04-24T04:54:42;1.10;;;0.83;;
13463;SDS011;6804;48.774;9.174;2023-04-24T04:57:09;1.10;;;1.00;;
13463;SDS011;6804;48.774;9.174;2023-04-24T04:59:37;1.23;;;0.80;;
13463;SDS011;6804;48.774;9.174;2023-04-24T05:02:06;1.53;;;0.83;;
13463;SDS011;6804;48.774;9.174;2023-04-24T05:04:36;1.90;;;0.87;;
13463;SDS011;6804;48.774;9.174;2023-04-24T05:07:08;1.57;;;0.70;;
13463;SDS011;6804;48.774;9.174;2023-04-24T05:09:36;2.30;;;1.07;;
13463;SDS011;6804;48.774;9.174;2023-04-24T05:12:05;1.60;;;0.90;;
13463;SDS011;6804;48.774;9.174;2023-04-24T05:14:35;1.70;;;0.83;;
13463;SDS011;6804;48.774;9.174;2023-04-24T05:17:08;0.80;;;0.80;;
13463;SDS011;6804;48.774;9.174;2023-04-24T05:19:35;2.17;;;0.90;;
13463;SDS011;6804;48.774;9.174;2023-04-24T05:22:06;2.43;;;0.90;;
13463;SDS011;6804;48.774;9.174;2023-04-24T05:24:34;1.70;;;0.90;;
13463;SDS011;6804;48.774;9.174;2023-04-24T05:27:06;1.37;;;1.00;;
13463;SDS011;6804;48.774;9.174;2023-04-24T05:29:36;0.90;;;0.90;;
13463;SDS011;6804;48.774;9.174;2023-04-24T05:32:04;1.63;;;1.00;;
13463;SDS011;6804;48.774;9.174;2023-04-24T05:34:32;1.20;;;0.83;;
13463;SDS011;6804;48.774;9.174;2023-04-24T05:36:59;1.67;;;1.20;;
13463;SDS011;6804;48.774;9.174;2023-04-24T05:39:27;1.00;;;0.90;;
13463;SDS011;6804;48.774;9.174;2023-04-24T05:42:01;1.13;;;1.03;;
13463;SDS011;6804;48.774;9.174;2023-04-24T05:44:31;1.20;;;0.90;;
13463;SDS011;6804;48.774;9.174;2023-04-24T05:46:58;1.40;;;1.10;;
13463;SDS011;6804;48.774;9.174;2023-04-24T05:49:29;2.17;;;1.30;;
13463;SDS011;6804;48.774;9.174;2023-04-24T05:51:59;1.97;;;1.10;;
13463;SDS011;6804;48.774;9.174;2023-04-24T05:54:29;1.57;;;1.10;;
13463;SDS011;6804;48.774;9.174;2023-04-24T05:57:00;2.10;;;1.10;;
13463;SDS011;6804;48.774;9.174;2023-04-24T05:59:35;1.77;;;1.00;;
13463;SDS011;6804;48.774;9.174;2023-04-24T06:02:06;1.00;;;0.90;;
13463;SDS011;6804;48.774;9.174;2023-04-24T06:04:35;1.47;;;0.90;;
13463;SDS011;6804;48.774;9.174;2023-04-24T06:07:03;2.40;;;1.23;;
13463;SDS011;6804;48.774;9.174;2023-04-24T06:09:31;2.67;;;1.17;;
13463;SDS011;6804;48.774;9.174;2023-04-24T06:11:59;4.77;;;1.10;;
13463;SDS011;6804;48.774;9.174;2023-04-24T06:14:27;2.63;;;1.20;;
13463;SDS011;6804;48.774;9.174;2023-04-24T06:17:02;2.33;;;1.00;;
13463;SDS011;6804;48.774;9.174;2023-04-24T06:19:30;1.73;;;1.10;;
13463;SDS011;6804;48.774;9.174;2023-04-24T06:21:58;1.33;;;1.23;;
13463;SDS011;6804;48.774;9.174;2023-04-24T06:24:27;1.23;;;1.13;;
13463;SDS011;6804;48.774;9.174;2023-04-24T06:26:54;1.67;;;1.20;;
13463;SDS011;6804;48.774;9.174;2023-04-24T06:29:24;1.37;;;1.10;;
13463;SDS011;6804;48.774;9.174;2023-04-24T06:31:51;3.23;;;1.00;;
13463;SDS011;6804;48.774;9.174;2023-04-24T06:34:23;1.90;;;1.33;;
13463;SDS011;6804;48.774;9.174;2023-04-24T06:36:51;1.20;;;1.03;;
13463;SDS011;6804;48.774;9.174;2023-04-24T06:39:25;1.63;;;1.20;;
13463;SDS011;6804;48.774;9.174;2023-04-24T06:41:52;1.57;;;1.20;;
13463;SDS011;6804;48.774;9.174;2023-04-24T06:44:20;1.33;;;1.20;;
13463;SDS011;6804;48.774;9.174;2023-04-24T06:46:48;2.20;;;1.30;;
13463;SDS011;6804;48.774;9.174;2023-04-24T06:49:30;1.30;;;1.10;;
13463;SDS011;6804;48.774;9.174;2023-04-24T06:51:58;1.40;;;1.30;;
13463;SDS011;6804;48.774;9.174;2023-04-24T06:54:28;3.13;;;1.43;;
13463;SDS011;6804;48.774;9.174;2023-04-24T06:56:57;2.50;;;1.40;;
13463;SDS011;6804;48.774;9.174;2023-04-24T06:59:25;2.40;;;1.20;;
13463;SDS011;6804;48.774;9.174;2023-04-24T07:01:53;1.70;;;1.13;;
13463;SDS011;6804;48.774;9.174;2023-04-24T07:04:21;1.70;;;1.30;;
13463;SDS011;6804;48.774;9.174;2023-04-24T07:06:54;1.40;;;1.17;;
13463;SDS011;6804;48.774;9.174;2023-04-24T07:09:23;1.37;;;1.20;;
13463;SDS011;6804;48.774;9.174;2023-04-24T07:11:52;0.90;;;0.90;;
13463;SDS011;6804;48.774;9.174;2023-04-24T07:14:22;2.03;;;1.20;;
13463;SDS011;6804;48.774;9.174;2023-04-24T07:16:50;1.60;;;1.20;;
13463;SDS011;6804;48.774;9.174;2023-04-24T07:19:23;2.07;;;1.30;;
13463;SDS011;6804;48.774;9.174;2023-04-24T07:21:54;2.27;;;1.50;;
13463;SDS011;6804;48.774;9.174;2023-04-24T07:24:23;1.87;;;1.17;;
13463;SDS011;6804;48.774;9.174;2023-04-24T07:26:54;2.03;;;1.40;;
13463;SDS011;6804;48.774;9.174;2023-04-24T07:29:22;2.20;;;1.40;;
13463;SDS011;6804;48.774;9.174;2023-04-24T07:31:50;1.70;;;1.20;;
13463;SDS011;6804;48.774;9.174;2023-04-24T07:34:21;3.10;;;1.53;;
13463;SDS011;6804;48.774;9.174;2023-04-24T07:36:49;2.57;;;1.10;;
13463;SDS011;6804;48.774;9.174;2023-04-24T07:39:19;1.47;;;1.20;;
13463;SDS011;6804;48.774;9.174;2023-04-24T07:41:51;1.47;;;1.30;;
13463;SDS011;6804;48.774;9.174;2023-04-24T07:44:19;1.57;;;1.13;;
13463;SDS011;6804;48.774;9.174;2023-04-24T07:46:48;1.40;;;1.10;;
13463;SDS011;6804;48.774;9.174;2023-04-24T07:49:15;2.57;;;1.10;;
13463;SDS011;6804;48.774;9.174;2023-04-24T07:51:43;1.20;;;1.07;;
13463;SDS011;6804;48.774;9.174;2023-04-24T07:54:14;2.90;;;1.23;;
13463;SDS011;6804;48.774;9.174;2023-04-24T07:56:46;3.63;;;1.17;;
13463;SDS011;6804;48.774;9.174;2023-04-24T07:59:14;3.20;;;1.30;;
13463;SDS011;6804;48.774;9.174;2023-04-24T08:01:42;1.33;;;1.10;;
13463;SDS011;6804;48.774;9.174;2023-04-24T08:04:10;1.40;;;0.90;;
13463;SDS011;6804;48.774;9.174;2023-04-24T08:06:41;2.23;;;1.20;;
13463;SDS011;6804;48.774;9.174;2023-04-24T08:09:09;2.43;;;1.30;;
13463;SDS011;6804;48.774;9.174;2023-04-24T08:11:39;2.47;;;1.23;;
13463;SDS011;6804;48.774;9.174;2023-04-24T08:14:08;1.93;;;1.07;;
13463;SDS011;6804;48.774;9.174;2023-04-24T08:16:37;2.87;;;1.20;;
13463;SDS011;6804;48.774;9.174;2023-04-24T08:19:05;1.07;;;1.00;;
13463;SDS011;6804;48.774;9.174;2023-04-24T08:21:38;1.30;;;1.10;;
13463;SDS011;6804;48.774;9.174;2023-04-24T08:24:05;2.07;;;1.20;;
13463;SDS011;6804;48.774;9.174;2023-04-24T08:29:04;1.33;;;1.20;;
13463;SDS011;6804;48.774;9.174;2023-04-24T08:31:37;3.30;;;1.30;;
13463;SDS011;6804;48.774;9.174;2023-04-24T08:34:04;3.17;;;1.30;;
13463;SDS011;6804;48.774;9.174;2023-04-24T08:36:32;1.20;;;1.10;;
13463;SDS011;6804;48.774;9.174;2023-04-24T08:39:00;2.20;;;1.37;;
13463;SDS011;6804;48.774;9.174;2023-04-24T08:41:29;3.20;;;1.40;;
13463;SDS011;6804;48.774;9.174;2023-04-24T08:44:00;1.53;;;1.20;;
13463;SDS011;6804;48.774;9.174;2023-04-24T08:46:29;1.57;;;1.30;;
13463;SDS011;6804;48.774;9.174;2023-04-24T08:48:59;1.67;;;1.40;;
13463;SDS011;6804;48.774;9.174;2023-04-24T08:51:27;2.27;;;1.30;;
13463;SDS011;6804;48.774;9.174;2023-04-24T08:53:56;2.77;;;1.10;;
13463;SDS011;6804;48.774;9.174;2023-04-24T08:56:27;2.13;;;1.60;;
13463;SDS011;6804;48.774;9.174;2023-04-24T08:58:56;1.90;;;1.23;;
13463;SDS011;6804;48.774;9.174;2023-04-24T09:01:24;3.13;;;1.20;;
13463;SDS011;6804;48.774;9.174;2023-04-24T09:03:54;2.67;;;1.37;;
13463;SDS011;6804;48.774;9.174;2023-04-24T09:06:26;1.50;;;1.20;;
13463;SDS011;6804;48.774;9.174;2023-04-24T09:08:59;1.20;;;1.10;;
13463;SDS011;6804;48.774;9.174;2023-04-24T09:11:29;1.70;;;1.23;;
13463;SDS011;6804;48.774;9.174;2023-04-24T09:13:58;2.30;;;1.60;;
13463;SDS011;6804;48.774;9.174;2023-04-24T09:16:29;1.67;;;1.23;;
13463;SDS011;6804;48.774;9.174;2023-04-24T09:18:58;1.47;;;1.20;;
13463;SDS011;6804;48.774;9.174;2023-04-24T09:21:30;1.50;;;1.30;;
13463;SDS011;6804;48.774;9.174;2023-04-24T09:23:59;1.80;;;1.20;;
13463;SDS011;6804;48.774;9.174;2023-04-24T09:26:29;1.63;;;1.10;;
13463;SDS011;6804;48.774;9.174;2023-04-24T09:28:58;1.37;;;1.10;;
13463;SDS011;6804;48.774;9.174;2023-04-24T09:31:26;2.07;;;1.60;;
13463;SDS011;6804;48.774;9.174;2023-04-24T09:33:58;1.37;;;1.27;;
13463;SDS011;6804;48.774;9.174;2023-04-24T09:36:29;2.03;;;1.83;;
13463;SDS011;6804;48.774;9.174;2023-04-24T09:38:59;2.00;;;1.53;;
13463;SDS011;6804;48.774;9.174;2023-04-24T09:41:27;2.23;;;1.20;;
13463;SDS011;6804;48.774;9.174;2023-04-24T09:43:55;3.87;;;2.43;;
13463;SDS011;6804;48.774;9.174;2023-04-24T09:46:29;2.13;;;1.40;;
13463;SDS011;6804;48.774;9.174;2023-04-24T09:49:02;2.30;;;1.57;;
13463;SDS011;6804;48.774;9.174;2023-04-24T09:51:37;2.60;;;1.30;;
13463;SDS011;6804;48.774;9.174;2023-04-24T09:54:12;4.20;;;1.57;;
13463;SDS011;6804;48.774;9.174;2023-04-24T09:56:43;2.60;;;1.70;;
13463;SDS011;6804;48.774;9.174;2023-04-24T09:59:14;2.30;;;1.40;;
13463;SDS011;6804;48.774;9.174;2023-04-24T10:01:46;2.03;;;1.20;;
13463;SDS011;6804;48.774;9.174;2023-04-24T10:04:17;1.90;;;1.50;;
13463;SDS011;6804;48.774;9.174;2023-04-24T10:06:50;3.07;;;1.50;;
13463;SDS011;6804;48.774;9.174;2023-04-24T10:09:20;1.50;;;1.30;;
13463;SDS011;6804;48.774;9.174;2023-04-24T10:11:49;3.07;;;1.03;;
13463;SDS011;6804;48.774;9.174;2023-04-24T10:14:19;1.47;;;1.30;;
13463;SDS011;6804;48.774;9.174;2023-04-24T10:16:48;1.40;;;1.30;;
13463;SDS011;6804;48.774;9.174;2023-04-24T10:19:17;2.13;;;1.20;;
13463;SDS011;6804;48.774;9.174;2023-04-24T10:21:47;2.33;;;1.30;;
13463;SDS011;6804;48.774;9.174;2023-04-24T10:24:17;2.30;;;1.40;;
13463;SDS011;6804;48.774;9.174;2023-04-24T10:26:47;2.30;;;1.07;;
13463;SDS011;6804;48.774;9.174;2023-04-24T10:29:18;2.17;;;1.60;;
13463;SDS011;6804;48.774;9.174;2023-04-24T10:31:47;5.83;;;1.60;;
13463;SDS011;6804;48.774;9.174;2023-04-24T10:34:18;2.03;;;1.20;;
13463;SDS011;6804;48.774;9.174;2023-04-24T10:36:52;1.47;;;1.03;;
13463;SDS011;6804;48.774;9.174;2023-04-24T10:39:21;1.60;;;1.30;;
13463;SDS011;6804;48.774;9.174;2023-04-24T10:41:49;1.70;;;1.40;;
13463;SDS011;6804;48.774;9.174;2023-04-24T10:44:17;1.93;;;1.50;;
13463;SDS011;6804;48.774;9.174;2023-04-24T10:46:52;1.53;;;1.20;;
13463;SDS011;6804;48.774;9.174;2023-04-24T10:49:27;2.67;;;1.30;;
13463;SDS011;6804;48.774;9.174;2023-04-24T10:52:01;2.87;;;1.50;;
13463;SDS011;6804;48.774;9.174;2023-04-24T10:54:33;3.57;;;1.33;;
13463;SDS011;6804;48.774;9.174;2023-04-24T11:00:16;2.27;;;1.60;;
13463;SDS011;6804;48.774;9.174;2023-04-24T11:02:46;2.83;;;1.27;;
13463;SDS011;6804;48.774;9.174;2023-04-24T11:05:20;2.03;;;1.40;;
13463;SDS011;6804;48.774;9.174;2023-04-24T11:10:43;1.40;;;1.20;;
13463;SDS011;6804;48.774;9.174;2023-04-24T11:13:21;2.00;;;1.80;;
13463;SDS011;6804;48.774;9.174;2023-04-24T11:18:51;4.67;;;2.03;;
13463;SDS011;6804;48.774;9.174;2023-04-24T11:21:30;1.43;;;1.23;;
13463;SDS011;6804;48.774;9.174;2023-04-24T11:24:00;2.87;;;1.80;;
13463;SDS011;6804;48.774;9.174;2023-04-24T11:26:58;4.00;;;1.57;;
13463;SDS011;6804;48.774;9.174;2023-04-24T11:29:44;1.60;;;1.20;;
13463;SDS011;6804;48.774;9.174;2023-04-24T11:32:23;1.63;;;1.20;;
13463;SDS011;6804;48.774;9.174;2023-04-24T11:34:53;1.50;;;1.40;;
13463;SDS011;6804;48.774;9.174;2023-04-24T11:37:21;1.60;;;1.40;;
13463;SDS011;6804;48.774;9.174;2023-04-24T11:39:53;1.60;;;1.23;;
13463;SDS011;6804;48.774;9.174;2023-04-24T11:42:21;1.20;;;1.10;;
13463;SDS011;6804;48.774;9.174;2023-04-24T11:44:52;2.27;;;1.30;;
13463;SDS011;6804;48.774;9.174;2023-04-24T11:47:27;1.50;;;1.30;;
13463;SDS011;6804;48.774;9.174;2023-04-24T11:49:56;1.07;;;0.93;;
13463;SDS011;6804;48.774;9.174;2023-04-24T11:52:33;1.57;;;1.30;;
13463;SDS011;6804;48.774;9.174;2023-04-24T11:55:12;3.13;;;1.50;;
13463;SDS011;6804;48.774;9.174;2023-04-24T11:57:52;1.93;;;1.40;;
13463;SDS011;6804;48.774;9.174;2023-04-24T12:00:23;1.97;;;1.57;;
13463;SDS011;6804;48.774;9.174;2023-04-24T12:02:53;1.47;;;1.10;;
13463;SDS011;6804;48.774;9.174;2023-04-24T12:05:32;1.53;;;1.20;;
13463;SDS011;6804;48.774;9.174;2023-04-24T12:08:00;2.97;;;1.30;;
13463;SDS011;6804;48.774;9.174;2023-04-24T12:10:30;1.33;;;1.10;;
13463;SDS011;6804;48.774;9.174;2023-04-24T12:13:00;1.37;;;1.27;;
13463;SDS011;6804;48.774;9.174;2023-04-24T12:15:28;2.20;;;1.90;;
13463;SDS011;6804;48.774;9.174;2023-04-24T12:17:57;2.20;;;1.60;;
13463;SDS011;6804;48.774;9.174;2023-04-24T12:20:26;2.17;;;1.67;;
13463;SDS011;6804;48.774;9.174;2023-04-24T12:23:04;1.23;;;1.10;;
13463;SDS011;6804;48.774;9.174;2023-04-24T12:25:33;2.43;;;1.40;;
13463;SDS011;6804;48.774;9.174;2023-04-24T12:28:11;2.40;;;1.40;;
13463;SDS011;6804;48.774;9.174;2023-04-24T12:30:41;1.93;;;1.40;;
13463;SDS011;6804;48.774;9.174;2023-04-24T12:33:11;2.70;;;2.20;;
13463;SDS011;6804;48.774;9.174;2023-04-24T12:35:40;1.60;;;1.10;;
13463;SDS011;6804;48.774;9.174;2023-04-24T12:38:08;1.60;;;1.27;;
13463;SDS011;6804;48.774;9.174;2023-04-24T12:40:42;1.80;;;1.70;;
13463;SDS011;6804;48.774;9.174;2023-04-24T12:43:14;1.50;;;1.17;;
13463;SDS011;6804;48.774;9.174;2023-04-24T12:45:43;3.33;;;1.60;;
13463;SDS011;6804;48.774;9.174;2023-04-24T12:48:13;1.70;;;1.60;;
13463;SDS011;6804;48.774;9.174;2023-04-24T12:50:41;2.23;;;1.70;;
13463;SDS011;6804;48.774;9.174;2023-04-24T12:53:13;2.20;;;1.40;;
13463;SDS011;6804;48.774;9.174;2023-04-24T12:55:43;2.20;;;1.57;;
13463;SDS011;6804;48.774;9.174;2023-04-24T12:58:17;1.40;;;1.30;;
13463;SDS011;6804;48.774;9.174;2023-04-24T13:00:47;1.63;;;1.53;;
13463;SDS011;6804;48.774;9.174;2023-04-24T13:03:15;1.70;;;1.30;;
13463;SDS011;6804;48.774;9.174;2023-04-24T13:05:43;3.20;;;1.77;;
13463;SDS011;6804;48.774;9.174;2023-04-24T13:08:11;1.40;;;1.00;;
13463;SDS011;6804;48.774;9.174;2023-04-24T13:10:39;1.90;;;1.40;;
13463;SDS011;6804;48.774;9.174;2023-04-24T13:13:09;1.77;;;1.47;;
13463;SDS011;6804;48.774;9.174;2023-04-24T13:15:37;2.80;;;2.23;;
13463;SDS011;6804;48.774;9.174;2023-04-24T13:18:05;4.40;;;2.20;;
13463;SDS011;6804;48.774;9.174;2023-04-24T13:20:33;2.97;;;1.83;;
13463;SDS011;6804;48.774;9.174;2023-04-24T13:23:02;2.43;;;1.50;;
13463;SDS011;6804;48.774;9.174;2023-04-24T13:25:34;2.10;;;1.60;;
13463;SDS011;6804;48.774;9.174;2023-04-24T13:28:04;1.60;;;1.10;;
13463;SDS011;6804;48.774;9.174;2023-04-24T13:30:34;1.30;;;1.20;;
13463;SDS011;6804;48.774;9.174;2023-04-24T13:33:02;3.00;;;1.87;;
13463;SDS011;6804;48.774;9.174;2023-04-24T13:35:31;2.23;;;1.20;;
13463;SDS011;6804;48.774;9.174;2023-04-24T13:38:02;1.60;;;1.33;;
13463;SDS011;6804;48.774;9.174;2023-04-24T13:40:34;1.60;;;1.40;;
13463;SDS011;6804;48.774;9.174;2023-04-24T13:43:02;1.83;;;1.60;;
13463;SDS011;6804;48.774;9.174;2023-04-24T13:45:35;1.80;;;1.40;;
13463;SDS011;6804;48.774;9.174;2023-04-24T13:48:03;3.77;;;1.33;;
13463;SDS011;6804;48.774;9.174;2023-04-24T13:50:34;1.93;;;1.27;;
13463;SDS011;6804;48.774;9.174;2023-04-24T13:53:04;1.83;;;1.40;;
13463;SDS011;6804;48.774;9.174;2023-04-24T13:55:34;1.63;;;1.20;;
13463;SDS011;6804;48.774;9.174;2023-04-24T13:58:04;1.20;;;1.10;;
13463;SDS011;6804;48.774;9.174;2023-04-24T14:00:33;1.63;;;1.30;;
13463;SDS011;6804;48.774;9.174;2023-04-24T14:03:03;2.07;;;1.27;;
13463;SDS011;6804;48.774;9.174;2023-04-24T14:05:31;2.00;;;1.80;;
13463;SDS011;6804;48.774;9.174;2023-04-24T14:08:04;2.50;;;1.77;;
13463;SDS011;6804;48.774;9.174;2023-04-24T14:10:35;2.23;;;1.90;;
13463;SDS011;6804;48.774;9.174;2023-04-24T14:13:06;2.47;;;1.67;;
13463;SDS011;6804;48.774;9.174;2023-04-24T14:15:35;2.70;;;1.53;;
13463;SDS011;6804;48.774;9.174;2023-04-24T14:18:07;2.43;;;1.57;;
13463;SDS011;6804;48.774;9.174;2023-04-24T14:20:35;1.60;;;1.30;;
13463;SDS011;6804;48.774;9.174;2023-04-24T14:23:04;1.53;;;1.20;;
13463;SDS011;6804;48.774;9.174;2023-04-24T14:25:35;1.47;;;1.37;;
13463;SDS011;6804;48.774;9.174;2023-04-24T14:28:06;1.97;;;1.50;;
13463;SDS011;6804;48.774;9.174;2023-04-24T14:30:35;1.33;;;1.23;;
13463;SDS011;6804;48.774;9.174;2023-04-24T14:33:06;2.20;;;1.20;;
13463;SDS011;6804;48.774;9.174;2023-04-24T14:35:35;1.47;;;1.30;;
13463;SDS011;6804;48.774;9.174;2023-04-24T14:38:06;3.00;;;1.50;;
13463;SDS011;6804;48.774;9.174;2023-04-24T14:40:34;2.00;;;1.80;;
13463;SDS011;6804;48.774;9.174;2023-04-24T14:43:05;2.30;;;1.20;;
13463;SDS011;6804;48.774;9.174;2023-04-24T14:45:34;1.87;;;1.00;;
13463;SDS011;6804;48.774;9.174;2023-04-24T14:48:05;1.30;;;1.20;;
13463;SDS011;6804;48.774;9.174;2023-04-24T14:50:38;1.77;;;1.50;;
13463;SDS011;6804;48.774;9.174;2023-04-24T14:53:06;1.60;;;1.50;;
13463;SDS011;6804;48.774;9.174;2023-04-24T14:55:34;1.97;;;1.50;;
13463;SDS011;6804;48.774;9.174;2023-04-24T14:58:03;2.43;;;1.77;;
13463;SDS011;6804;48.774;9.174;2023-04-24T15:00:34;1.90;;;1.70;;
13463;SDS011;6804;48.774;9.174;2023-04-24T15:03:02;2.53;;;1.77;;
13463;SDS011;6804;48.774;9.174;2023-04-24T15:05:34;2.37;;;1.70;;
13463;SDS011;6804;48.774;9.174;2023-04-24T15:08:10;1.90;;;1.70;;
13463;SDS011;6804;48.774;9.174;2023-04-24T15:10:37;1.90;;;1.60;;
13463;SDS011;6804;48.774;9.174;2023-04-24T15:13:06;3.00;;;2.17;;
13463;SDS011;6804;48.774;9.174;2023-04-24T15:15:37;3.07;;;2.20;;
13463;SDS011;6804;48.774;9.174;2023-04-24T15:18:05;2.07;;;1.60;;
13463;SDS011;6804;48.774;9.174;2023-04-24T15:20:37;2.17;;;1.63;;
13463;SDS011;6804;48.774;9.174;2023-04-24T15:23:08;1.63;;;1.40;;
13463;SDS011;6804;48.774;9.174;2023-04-24T15:25:36;3.23;;;1.80;;
13463;SDS011;6804;48.774;9.174;2023-04-24T15:28:07;2.70;;;1.83;;